sensor_id;sensor_type;location;lat;lon;timestamp;temperature;humidity
52765;DHT22;38650;44.536;18.664;2022-10-16T00:01:15;14.00;99.90
52765;DHT22;38650;44.536;18.664;2022-10-16T00:03:42;14.00;99.90
52765;DHT22;38650;44.536;18.664;2022-10-16T00:06:09;14.00;99.90
52765;DHT22;38650;44.536;18.664;2022-10-16T00:08:36;14.00;99.90
52765;DHT22;38650;44.536;18.664;2022-10-16T00:11:11;13.90;99.90
52765;DHT22;38650;44.536;18.664;2022-10-16T00:13:38;13.90;99.90
52765;DHT22;38650;44.536;18.664;2022-10-16T00:16:06;13.90;99.90
52765;DHT22;38650;44.536;18.664;2022-10-16T00:18:33;14.00;99.90
52765;DHT22;38650;44.536;18.664;2022-10-16T00:21:11;13.90;99.90
52765;DHT22;38650;44.536;18.664;2022-10-16T00:23:37;13.80;99.90
52765;DHT22;38650;44.536;18.664;2022-10-16T00:26:13;13.90;99.90
52765;DHT22;38650;44.536;18.664;2022-10-16T00:28:39;13.80;99.90
52765;DHT22;38650;44.536;18.664;2022-10-16T00:31:11;13.80;99.90
52765;DHT22;38650;44.536;18.664;2022-10-16T00:33:37;13.60;99.90
52765;DHT22;38650;44.536;18.664;2022-10-16T00:36:05;13.60;99.90
52765;DHT22;38650;44.536;18.664;2022-10-16T00:38:31;13.60;99.90
52765;DHT22;38650;44.536;18.664;2022-10-16T00:40:56;13.60;99.90
52765;DHT22;38650;44.536;18.664;2022-10-16T00:43:41;13.70;99.90
52765;DHT22;38650;44.536;18.664;2022-10-16T00:51:25;13.50;99.90
52765;DHT22;38650;44.536;18.664;2022-10-16T00:53:52;13.50;99.90
52765;DHT22;38650;44.536;18.664;2022-10-16T00:56:18;13.60;99.90
52765;DHT22;38650;44.536;18.664;2022-10-16T00:58:44;13.60;99.90
52765;DHT22;38650;44.536;18.664;2022-10-16T01:01:09;13.50;99.90
52765;DHT22;38650;44.536;18.664;2022-10-16T01:03:37;13.60;99.90
52765;DHT22;38650;44.536;18.664;2022-10-16T01:07:05;13.50;99.90
52765;DHT22;38650;44.536;18.664;2022-10-16T01:09:45;13.50;99.90
52765;DHT22;38650;44.536;18.664;2022-10-16T01:14:54;13.30;99.90
52765;DHT22;38650;44.536;18.664;2022-10-16T01:25:36;13.40;99.90
52765;DHT22;38650;44.536;18.664;2022-10-16T01:28:06;13.40;99.90
52765;DHT22;38650;44.536;18.664;2022-10-16T01:30:35;13.40;99.90
52765;DHT22;38650;44.536;18.664;2022-10-16T01:33:13;13.30;99.90
52765;DHT22;38650;44.536;18.664;2022-10-16T01:35:46;13.40;99.90
52765;DHT22;38650;44.536;18.664;2022-10-16T01:38:20;13.30;99.90
52765;DHT22;38650;44.536;18.664;2022-10-16T01:40:50;13.20;99.90
52765;DHT22;38650;44.536;18.664;2022-10-16T01:43:27;13.10;99.90
52765;DHT22;38650;44.536;18.664;2022-10-16T01:45:55;13.10;99.90
52765;DHT22;38650;44.536;18.664;2022-10-16T01:48:23;13.10;99.90
52765;DHT22;38650;44.536;18.664;2022-10-16T01:50:57;13.10;99.90
52765;DHT22;38650;44.536;18.664;2022-10-16T01:53:24;13.10;99.90
52765;DHT22;38650;44.536;18.664;2022-10-16T01:55:52;13.10;99.90
52765;DHT22;38650;44.536;18.664;2022-10-16T01:58:19;13.00;99.90
52765;DHT22;38650;44.536;18.664;2022-10-16T02:00:47;13.00;99.90
52765;DHT22;38650;44.536;18.664;2022-10-16T02:03:15;12.90;99.90
52765;DHT22;38650;44.536;18.664;2022-10-16T02:06:04;12.90;99.90
52765;DHT22;38650;44.536;18.664;2022-10-16T02:08:30;12.90;99.90
52765;DHT22;38650;44.536;18.664;2022-10-16T02:10:57;12.80;99.90
52765;DHT22;38650;44.536;18.664;2022-10-16T02:13:28;12.80;99.90
52765;DHT22;38650;44.536;18.664;2022-10-16T02:15:55;12.80;99.90
52765;DHT22;38650;44.536;18.664;2022-10-16T02:18:21;12.80;99.90
52765;DHT22;38650;44.536;18.664;2022-10-16T02:20:53;12.80;99.90
52765;DHT22;38650;44.536;18.664;2022-10-16T02:24:13;12.80;99.90
52765;DHT22;38650;44.536;18.664;2022-10-16T02:26:16;12.80;99.90
52765;DHT22;38650;44.536;18.664;2022-10-16T02:28:48;12.80;99.90
52765;DHT22;38650;44.536;18.664;2022-10-16T02:31:19;12.80;99.90
52765;DHT22;38650;44.536;18.664;2022-10-16T02:33:49;12.80;99.90
52765;DHT22;38650;44.536;18.664;2022-10-16T02:36:16;12.60;99.90
52765;DHT22;38650;44.536;18.664;2022-10-16T02:38:42;12.60;99.90
52765;DHT22;38650;44.536;18.664;2022-10-16T02:41:08;12.60;99.90
52765;DHT22;38650;44.536;18.664;2022-10-16T02:43:34;12.60;99.90
52765;DHT22;38650;44.536;18.664;2022-10-16T02:46:00;12.60;99.90
52765;DHT22;38650;44.536;18.664;2022-10-16T02:48:25;12.60;99.90
52765;DHT22;38650;44.536;18.664;2022-10-16T02:50:51;12.60;99.90
52765;DHT22;38650;44.536;18.664;2022-10-16T02:53:17;12.60;99.90
52765;DHT22;38650;44.536;18.664;2022-10-16T02:55:42;12.60;99.90
52765;DHT22;38650;44.536;18.664;2022-10-16T02:58:08;12.60;99.90
52765;DHT22;38650;44.536;18.664;2022-10-16T03:00:33;12.50;99.90
52765;DHT22;38650;44.536;18.664;2022-10-16T03:02:59;12.60;99.90
52765;DHT22;38650;44.536;18.664;2022-10-16T03:05:25;12.50;99.90
52765;DHT22;38650;44.536;18.664;2022-10-16T03:07:51;12.50;99.90
52765;DHT22;38650;44.536;18.664;2022-10-16T03:10:18;12.50;99.90
52765;DHT22;38650;44.536;18.664;2022-10-16T03:12:43;12.50;99.90
52765;DHT22;38650;44.536;18.664;2022-10-16T03:15:09;12.50;99.90
52765;DHT22;38650;44.536;18.664;2022-10-16T03:17:35;12.50;99.90
52765;DHT22;38650;44.536;18.664;2022-10-16T03:20:01;12.40;99.90
52765;DHT22;38650;44.536;18.664;2022-10-16T03:22:26;12.40;99.90
52765;DHT22;38650;44.536;18.664;2022-10-16T03:24:52;12.40;99.90
52765;DHT22;38650;44.536;18.664;2022-10-16T03:27:18;12.40;99.90
52765;DHT22;38650;44.536;18.664;2022-10-16T03:29:44;12.40;99.90
52765;DHT22;38650;44.536;18.664;2022-10-16T03:32:09;12.30;99.90
52765;DHT22;38650;44.536;18.664;2022-10-16T03:34:35;12.30;99.90
52765;DHT22;38650;44.536;18.664;2022-10-16T03:37:00;12.30;99.90
52765;DHT22;38650;44.536;18.664;2022-10-16T03:39:26;12.30;99.90
52765;DHT22;38650;44.536;18.664;2022-10-16T03:41:52;12.30;99.90
52765;DHT22;38650;44.536;18.664;2022-10-16T03:44:18;12.20;99.90
52765;DHT22;38650;44.536;18.664;2022-10-16T03:46:43;12.10;99.90
52765;DHT22;38650;44.536;18.664;2022-10-16T03:49:09;12.10;99.90
52765;DHT22;38650;44.536;18.664;2022-10-16T03:51:35;12.10;99.90
52765;DHT22;38650;44.536;18.664;2022-10-16T03:54:00;12.10;99.90
52765;DHT22;38650;44.536;18.664;2022-10-16T03:56:26;12.10;99.90
52765;DHT22;38650;44.536;18.664;2022-10-16T03:58:52;12.10;99.90
52765;DHT22;38650;44.536;18.664;2022-10-16T04:01:17;12.10;99.90
52765;DHT22;38650;44.536;18.664;2022-10-16T04:03:43;12.10;99.90
52765;DHT22;38650;44.536;18.664;2022-10-16T04:06:08;12.10;99.90
52765;DHT22;38650;44.536;18.664;2022-10-16T04:08:34;12.10;99.90
52765;DHT22;38650;44.536;18.664;2022-10-16T04:11:02;12.10;99.90
52765;DHT22;38650;44.536;18.664;2022-10-16T04:13:27;12.10;99.90
52765;DHT22;38650;44.536;18.664;2022-10-16T04:15:53;12.10;99.90
52765;DHT22;38650;44.536;18.664;2022-10-16T04:18:19;12.00;99.90
52765;DHT22;38650;44.536;18.664;2022-10-16T04:20:44;12.10;99.90
52765;DHT22;38650;44.536;18.664;2022-10-16T04:23:10;12.10;99.90
52765;DHT22;38650;44.536;18.664;2022-10-16T04:25:35;12.00;99.90
52765;DHT22;38650;44.536;18.664;2022-10-16T04:28:01;12.00;99.90
52765;DHT22;38650;44.536;18.664;2022-10-16T04:30:27;12.00;99.90
52765;DHT22;38650;44.536;18.664;2022-10-16T04:32:53;11.90;99.90
52765;DHT22;38650;44.536;18.664;2022-10-16T04:35:20;11.80;99.90
52765;DHT22;38650;44.536;18.664;2022-10-16T04:37:46;11.80;99.90
52765;DHT22;38650;44.536;18.664;2022-10-16T04:40:12;11.90;99.90
52765;DHT22;38650;44.536;18.664;2022-10-16T04:42:37;11.80;99.90
52765;DHT22;38650;44.536;18.664;2022-10-16T04:45:05;11.80;99.90
52765;DHT22;38650;44.536;18.664;2022-10-16T04:47:31;11.80;99.90
52765;DHT22;38650;44.536;18.664;2022-10-16T04:49:56;11.80;99.90
52765;DHT22;38650;44.536;18.664;2022-10-16T04:52:22;11.80;99.90
52765;DHT22;38650;44.536;18.664;2022-10-16T04:54:50;11.80;99.90
52765;DHT22;38650;44.536;18.664;2022-10-16T04:57:16;11.70;99.90
52765;DHT22;38650;44.536;18.664;2022-10-16T04:59:42;11.80;99.90
52765;DHT22;38650;44.536;18.664;2022-10-16T05:02:07;11.80;99.90
52765;DHT22;38650;44.536;18.664;2022-10-16T05:04:33;11.80;99.90
52765;DHT22;38650;44.536;18.664;2022-10-16T05:06:59;11.80;99.90
52765;DHT22;38650;44.536;18.664;2022-10-16T05:09:24;11.80;99.90
52765;DHT22;38650;44.536;18.664;2022-10-16T05:11:50;11.80;99.90
52765;DHT22;38650;44.536;18.664;2022-10-16T05:14:16;11.70;99.90
52765;DHT22;38650;44.536;18.664;2022-10-16T05:16:41;11.70;99.90
52765;DHT22;38650;44.536;18.664;2022-10-16T05:19:07;11.70;99.90
52765;DHT22;38650;44.536;18.664;2022-10-16T05:21:33;11.60;99.90
52765;DHT22;38650;44.536;18.664;2022-10-16T05:23:58;11.70;99.90
52765;DHT22;38650;44.536;18.664;2022-10-16T05:26:24;11.70;99.90
52765;DHT22;38650;44.536;18.664;2022-10-16T05:28:50;11.70;99.90
52765;DHT22;38650;44.536;18.664;2022-10-16T05:31:16;11.70;99.90
52765;DHT22;38650;44.536;18.664;2022-10-16T05:33:41;11.70;99.90
52765;DHT22;38650;44.536;18.664;2022-10-16T05:36:09;11.70;99.90
52765;DHT22;38650;44.536;18.664;2022-10-16T05:38:36;11.70;99.90
52765;DHT22;38650;44.536;18.664;2022-10-16T05:41:04;11.70;99.90
52765;DHT22;38650;44.536;18.664;2022-10-16T05:43:30;11.80;99.90
52765;DHT22;38650;44.536;18.664;2022-10-16T05:45:58;11.80;99.90
52765;DHT22;38650;44.536;18.664;2022-10-16T05:48:25;11.70;99.90
52765;DHT22;38650;44.536;18.664;2022-10-16T05:50:58;11.80;99.90
52765;DHT22;38650;44.536;18.664;2022-10-16T05:53:24;11.80;99.90
52765;DHT22;38650;44.536;18.664;2022-10-16T05:55:57;11.90;99.90
52765;DHT22;38650;44.536;18.664;2022-10-16T05:58:23;11.90;99.90
52765;DHT22;38650;44.536;18.664;2022-10-16T06:00:56;11.90;99.90
52765;DHT22;38650;44.536;18.664;2022-10-16T06:03:23;11.90;99.90
52765;DHT22;38650;44.536;18.664;2022-10-16T06:05:49;11.90;99.90
52765;DHT22;38650;44.536;18.664;2022-10-16T06:08:15;12.00;99.90
52765;DHT22;38650;44.536;18.664;2022-10-16T06:10:41;12.00;99.90
52765;DHT22;38650;44.536;18.664;2022-10-16T06:13:06;12.00;99.90
52765;DHT22;38650;44.536;18.664;2022-10-16T06:15:32;12.10;99.90
52765;DHT22;38650;44.536;18.664;2022-10-16T06:17:58;12.20;99.90
52765;DHT22;38650;44.536;18.664;2022-10-16T06:20:23;12.20;99.90
52765;DHT22;38650;44.536;18.664;2022-10-16T06:22:49;12.10;99.90
52765;DHT22;38650;44.536;18.664;2022-10-16T06:25:15;12.10;99.90
52765;DHT22;38650;44.536;18.664;2022-10-16T06:27:40;12.10;99.90
52765;DHT22;38650;44.536;18.664;2022-10-16T06:30:07;12.10;99.90
52765;DHT22;38650;44.536;18.664;2022-10-16T06:32:33;12.10;99.90
52765;DHT22;38650;44.536;18.664;2022-10-16T06:34:58;12.10;99.90
52765;DHT22;38650;44.536;18.664;2022-10-16T06:37:24;12.20;99.90
52765;DHT22;38650;44.536;18.664;2022-10-16T06:39:50;12.60;99.90
52765;DHT22;38650;44.536;18.664;2022-10-16T06:42:19;13.90;99.90
52765;DHT22;38650;44.536;18.664;2022-10-16T06:44:44;16.50;99.90
52765;DHT22;38650;44.536;18.664;2022-10-16T06:47:10;18.90;90.10
52765;DHT22;38650;44.536;18.664;2022-10-16T06:49:36;20.80;73.00
52765;DHT22;38650;44.536;18.664;2022-10-16T06:52:02;22.30;64.30
52765;DHT22;38650;44.536;18.664;2022-10-16T06:54:28;23.60;58.00
52765;DHT22;38650;44.536;18.664;2022-10-16T06:56:54;24.40;55.70
52765;DHT22;38650;44.536;18.664;2022-10-16T06:59:21;25.40;53.10
52765;DHT22;38650;44.536;18.664;2022-10-16T07:01:47;26.20;50.70
52765;DHT22;38650;44.536;18.664;2022-10-16T07:04:12;26.80;48.40
52765;DHT22;38650;44.536;18.664;2022-10-16T07:06:38;27.20;47.10
52765;DHT22;38650;44.536;18.664;2022-10-16T07:09:06;27.30;46.50
52765;DHT22;38650;44.536;18.664;2022-10-16T07:11:33;27.40;46.40
52765;DHT22;38650;44.536;18.664;2022-10-16T07:13:58;27.60;46.80
52765;DHT22;38650;44.536;18.664;2022-10-16T07:16:26;28.10;46.10
52765;DHT22;38650;44.536;18.664;2022-10-16T07:18:54;28.50;45.70
52765;DHT22;38650;44.536;18.664;2022-10-16T07:21:23;29.00;44.70
52765;DHT22;38650;44.536;18.664;2022-10-16T07:23:56;29.60;43.90
52765;DHT22;38650;44.536;18.664;2022-10-16T07:26:23;29.90;43.70
52765;DHT22;38650;44.536;18.664;2022-10-16T07:28:49;30.30;43.00
52765;DHT22;38650;44.536;18.664;2022-10-16T07:31:17;30.40;42.90
52765;DHT22;38650;44.536;18.664;2022-10-16T07:33:43;30.40;42.30
52765;DHT22;38650;44.536;18.664;2022-10-16T07:36:11;30.80;42.70
52765;DHT22;38650;44.536;18.664;2022-10-16T07:38:37;31.30;42.40
52765;DHT22;38650;44.536;18.664;2022-10-16T07:41:06;31.70;41.20
52765;DHT22;38650;44.536;18.664;2022-10-16T07:43:32;31.90;40.80
52765;DHT22;38650;44.536;18.664;2022-10-16T07:45:58;32.20;40.40
52765;DHT22;38650;44.536;18.664;2022-10-16T07:48:27;32.50;39.70
52765;DHT22;38650;44.536;18.664;2022-10-16T07:51:00;33.10;39.20
52765;DHT22;38650;44.536;18.664;2022-10-16T07:53:26;33.50;38.40
52765;DHT22;38650;44.536;18.664;2022-10-16T07:55:56;33.60;38.00
52765;DHT22;38650;44.536;18.664;2022-10-16T07:58:22;33.80;37.70
52765;DHT22;38650;44.536;18.664;2022-10-16T08:00:47;33.80;37.70
52765;DHT22;38650;44.536;18.664;2022-10-16T08:03:13;33.80;37.40
52765;DHT22;38650;44.536;18.664;2022-10-16T08:05:39;33.80;36.90
52765;DHT22;38650;44.536;18.664;2022-10-16T08:08:04;33.70;36.90
52765;DHT22;38650;44.536;18.664;2022-10-16T08:10:30;33.40;36.80
52765;DHT22;38650;44.536;18.664;2022-10-16T08:12:57;33.00;37.50
52765;DHT22;38650;44.536;18.664;2022-10-16T08:15:22;33.20;37.30
52765;DHT22;38650;44.536;18.664;2022-10-16T08:18:02;33.60;37.40
52765;DHT22;38650;44.536;18.664;2022-10-16T08:20:29;33.70;37.00
52765;DHT22;38650;44.536;18.664;2022-10-16T08:22:55;32.30;37.20
52765;DHT22;38650;44.536;18.664;2022-10-16T08:25:23;30.80;39.20
52765;DHT22;38650;44.536;18.664;2022-10-16T08:27:49;28.90;41.60
52765;DHT22;38650;44.536;18.664;2022-10-16T08:30:16;27.30;43.00
52765;DHT22;38650;44.536;18.664;2022-10-16T08:32:42;26.30;45.00
52765;DHT22;38650;44.536;18.664;2022-10-16T08:35:11;25.50;45.70
52765;DHT22;38650;44.536;18.664;2022-10-16T08:37:38;24.60;47.30
52765;DHT22;38650;44.536;18.664;2022-10-16T08:40:06;24.20;48.20
52765;DHT22;38650;44.536;18.664;2022-10-16T08:42:35;23.80;49.10
52765;DHT22;38650;44.536;18.664;2022-10-16T08:50:28;22.60;51.90
52765;DHT22;38650;44.536;18.664;2022-10-16T08:52:55;22.40;53.30
52765;DHT22;38650;44.536;18.664;2022-10-16T08:57:53;22.30;53.90
52765;DHT22;38650;44.536;18.664;2022-10-16T09:00:19;22.20;55.70
52765;DHT22;38650;44.536;18.664;2022-10-16T09:03:03;22.00;55.90
52765;DHT22;38650;44.536;18.664;2022-10-16T09:05:49;21.90;55.40
52765;DHT22;38650;44.536;18.664;2022-10-16T09:22:54;21.90;58.80
52765;DHT22;38650;44.536;18.664;2022-10-16T09:25:23;22.10;58.00
52765;DHT22;38650;44.536;18.664;2022-10-16T09:27:52;22.60;60.60
52765;DHT22;38650;44.536;18.664;2022-10-16T09:30:21;23.10;56.80
52765;DHT22;38650;44.536;18.664;2022-10-16T09:32:51;23.70;55.70
52765;DHT22;38650;44.536;18.664;2022-10-16T09:35:20;24.30;54.50
52765;DHT22;38650;44.536;18.664;2022-10-16T09:37:49;24.50;54.80
52765;DHT22;38650;44.536;18.664;2022-10-16T09:40:33;24.70;52.80
52765;DHT22;38650;44.536;18.664;2022-10-16T09:43:24;25.10;54.70
52765;DHT22;38650;44.536;18.664;2022-10-16T09:46:04;25.50;54.80
52765;DHT22;38650;44.536;18.664;2022-10-16T09:48:44;25.90;52.80
52765;DHT22;38650;44.536;18.664;2022-10-16T09:51:24;26.10;51.50
52765;DHT22;38650;44.536;18.664;2022-10-16T09:54:16;26.50;50.40
52765;DHT22;38650;44.536;18.664;2022-10-16T09:56:40;26.80;49.20
52765;DHT22;38650;44.536;18.664;2022-10-16T10:01:43;27.50;49.30
52765;DHT22;38650;44.536;18.664;2022-10-16T10:04:10;27.60;48.70
52765;DHT22;38650;44.536;18.664;2022-10-16T10:06:53;27.50;47.70
52765;DHT22;38650;44.536;18.664;2022-10-16T10:09:26;27.50;46.60
52765;DHT22;38650;44.536;18.664;2022-10-16T10:11:55;27.30;46.00
52765;DHT22;38650;44.536;18.664;2022-10-16T10:17:23;27.60;47.30
52765;DHT22;38650;44.536;18.664;2022-10-16T10:20:00;27.90;44.70
52765;DHT22;38650;44.536;18.664;2022-10-16T10:36:11;29.00;44.80
52765;DHT22;38650;44.536;18.664;2022-10-16T10:47:05;29.00;45.00
52765;DHT22;38650;44.536;18.664;2022-10-16T11:05:50;29.40;45.40
52765;DHT22;38650;44.536;18.664;2022-10-16T11:13:30;29.70;46.50
52765;DHT22;38650;44.536;18.664;2022-10-16T11:16:00;29.90;45.90
52765;DHT22;38650;44.536;18.664;2022-10-16T11:21:14;30.30;41.60
52765;DHT22;38650;44.536;18.664;2022-10-16T11:24:00;30.40;40.10
52765;DHT22;38650;44.536;18.664;2022-10-16T11:26:35;30.50;40.40
52765;DHT22;38650;44.536;18.664;2022-10-16T11:29:02;30.60;40.60
52765;DHT22;38650;44.536;18.664;2022-10-16T11:31:39;30.70;42.50
52765;DHT22;38650;44.536;18.664;2022-10-16T11:36:58;30.90;41.90
52765;DHT22;38650;44.536;18.664;2022-10-16T11:39:29;30.90;40.30
52765;DHT22;38650;44.536;18.664;2022-10-16T11:42:10;30.90;42.20
52765;DHT22;38650;44.536;18.664;2022-10-16T11:53:11;31.10;40.70
52765;DHT22;38650;44.536;18.664;2022-10-16T11:55:40;31.20;40.10
52765;DHT22;38650;44.536;18.664;2022-10-16T12:01:47;31.00;40.40
52765;DHT22;38650;44.536;18.664;2022-10-16T12:06:38;31.20;43.50
52765;DHT22;38650;44.536;18.664;2022-10-16T12:09:34;31.20;40.90
52765;DHT22;38650;44.536;18.664;2022-10-16T12:11:58;31.00;39.70
52765;DHT22;38650;44.536;18.664;2022-10-16T12:14:37;30.90;41.20
52765;DHT22;38650;44.536;18.664;2022-10-16T12:17:24;30.90;41.30
52765;DHT22;38650;44.536;18.664;2022-10-16T12:20:12;30.70;38.80
52765;DHT22;38650;44.536;18.664;2022-10-16T12:22:53;30.70;40.50
52765;DHT22;38650;44.536;18.664;2022-10-16T12:25:33;30.80;39.10
52765;DHT22;38650;44.536;18.664;2022-10-16T12:30:41;31.10;39.80
52765;DHT22;38650;44.536;18.664;2022-10-16T12:33:28;31.40;38.70
52765;DHT22;38650;44.536;18.664;2022-10-16T12:35:55;31.60;39.80
52765;DHT22;38650;44.536;18.664;2022-10-16T12:38:25;31.80;39.80
52765;DHT22;38650;44.536;18.664;2022-10-16T12:41:04;31.90;38.50
52765;DHT22;38650;44.536;18.664;2022-10-16T12:48:39;31.80;37.10
52765;DHT22;38650;44.536;18.664;2022-10-16T12:54:03;31.30;38.80
52765;DHT22;38650;44.536;18.664;2022-10-16T12:59:46;31.60;42.10
52765;DHT22;38650;44.536;18.664;2022-10-16T13:02:44;31.80;39.10
52765;DHT22;38650;44.536;18.664;2022-10-16T13:10:55;31.30;38.20
52765;DHT22;38650;44.536;18.664;2022-10-16T13:14:22;31.20;39.90
52765;DHT22;38650;44.536;18.664;2022-10-16T13:27:54;31.90;40.50
52765;DHT22;38650;44.536;18.664;2022-10-16T13:30:26;31.70;40.30
52765;DHT22;38650;44.536;18.664;2022-10-16T13:33:26;31.40;41.40
52765;DHT22;38650;44.536;18.664;2022-10-16T13:35:56;31.00;40.30
52765;DHT22;38650;44.536;18.664;2022-10-16T13:38:26;31.00;42.20
52765;DHT22;38650;44.536;18.664;2022-10-16T13:41:05;30.90;41.40
52765;DHT22;38650;44.536;18.664;2022-10-16T13:43:49;30.80;41.90
52765;DHT22;38650;44.536;18.664;2022-10-16T13:46:17;30.60;41.60
52765;DHT22;38650;44.536;18.664;2022-10-16T13:48:44;30.20;43.20
52765;DHT22;38650;44.536;18.664;2022-10-16T13:51:17;29.90;43.40
52765;DHT22;38650;44.536;18.664;2022-10-16T13:53:43;29.70;44.40
52765;DHT22;38650;44.536;18.664;2022-10-16T13:56:15;29.80;45.00
52765;DHT22;38650;44.536;18.664;2022-10-16T13:58:41;29.90;44.30
52765;DHT22;38650;44.536;18.664;2022-10-16T14:01:25;29.80;44.90
52765;DHT22;38650;44.536;18.664;2022-10-16T14:03:53;29.60;43.20
52765;DHT22;38650;44.536;18.664;2022-10-16T14:06:25;29.20;44.20
52765;DHT22;38650;44.536;18.664;2022-10-16T14:11:23;28.70;44.80
52765;DHT22;38650;44.536;18.664;2022-10-16T14:13:50;28.40;45.10
52765;DHT22;38650;44.536;18.664;2022-10-16T14:16:30;28.10;45.30
52765;DHT22;38650;44.536;18.664;2022-10-16T14:19:01;27.90;45.60
52765;DHT22;38650;44.536;18.664;2022-10-16T14:21:28;27.60;46.80
52765;DHT22;38650;44.536;18.664;2022-10-16T14:23:54;27.80;46.80
52765;DHT22;38650;44.536;18.664;2022-10-16T14:26:23;27.80;46.90
52765;DHT22;38650;44.536;18.664;2022-10-16T14:29:09;27.70;46.80
52765;DHT22;38650;44.536;18.664;2022-10-16T14:31:36;27.30;47.10
52765;DHT22;38650;44.536;18.664;2022-10-16T14:34:02;27.00;47.70
52765;DHT22;38650;44.536;18.664;2022-10-16T14:36:29;27.00;48.00
52765;DHT22;38650;44.536;18.664;2022-10-16T14:39:04;26.90;48.60
52765;DHT22;38650;44.536;18.664;2022-10-16T14:41:35;26.90;49.30
52765;DHT22;38650;44.536;18.664;2022-10-16T14:44:06;26.70;49.20
52765;DHT22;38650;44.536;18.664;2022-10-16T14:46:36;26.70;49.80
52765;DHT22;38650;44.536;18.664;2022-10-16T14:51:35;26.60;50.30
52765;DHT22;38650;44.536;18.664;2022-10-16T14:54:01;26.60;50.50
52765;DHT22;38650;44.536;18.664;2022-10-16T14:56:57;26.60;50.10
52765;DHT22;38650;44.536;18.664;2022-10-16T14:59:30;26.40;50.90
52765;DHT22;38650;44.536;18.664;2022-10-16T15:01:57;25.90;51.20
52765;DHT22;38650;44.536;18.664;2022-10-16T15:04:23;25.80;52.20
52765;DHT22;38650;44.536;18.664;2022-10-16T15:06:49;25.80;52.10
52765;DHT22;38650;44.536;18.664;2022-10-16T15:09:15;25.80;52.80
52765;DHT22;38650;44.536;18.664;2022-10-16T15:11:41;25.70;53.30
52765;DHT22;38650;44.536;18.664;2022-10-16T15:14:11;25.60;53.90
52765;DHT22;38650;44.536;18.664;2022-10-16T15:16:37;25.50;53.90
52765;DHT22;38650;44.536;18.664;2022-10-16T15:19:02;25.60;54.00
52765;DHT22;38650;44.536;18.664;2022-10-16T15:21:31;25.40;54.10
52765;DHT22;38650;44.536;18.664;2022-10-16T15:23:58;25.30;54.90
52765;DHT22;38650;44.536;18.664;2022-10-16T15:26:25;25.20;55.70
52765;DHT22;38650;44.536;18.664;2022-10-16T15:28:51;25.00;55.50
52765;DHT22;38650;44.536;18.664;2022-10-16T15:31:17;24.90;56.30
52765;DHT22;38650;44.536;18.664;2022-10-16T15:33:43;24.90;56.60
52765;DHT22;38650;44.536;18.664;2022-10-16T15:36:09;24.70;57.30
52765;DHT22;38650;44.536;18.664;2022-10-16T15:38:35;24.40;58.00
52765;DHT22;38650;44.536;18.664;2022-10-16T15:41:01;24.30;58.60
52765;DHT22;38650;44.536;18.664;2022-10-16T15:43:26;24.10;60.00
52765;DHT22;38650;44.536;18.664;2022-10-16T15:48:25;23.80;61.50
52765;DHT22;38650;44.536;18.664;2022-10-16T15:50:51;23.70;62.30
52765;DHT22;38650;44.536;18.664;2022-10-16T15:53:16;23.60;63.50
52765;DHT22;38650;44.536;18.664;2022-10-16T15:55:42;23.40;64.50
52765;DHT22;38650;44.536;18.664;2022-10-16T15:58:08;23.20;65.50
52765;DHT22;38650;44.536;18.664;2022-10-16T16:00:33;23.00;66.90
52765;DHT22;38650;44.536;18.664;2022-10-16T16:02:59;22.80;68.30
52765;DHT22;38650;44.536;18.664;2022-10-16T16:05:25;22.60;72.00
52765;DHT22;38650;44.536;18.664;2022-10-16T16:07:51;22.30;73.60
52765;DHT22;38650;44.536;18.664;2022-10-16T16:10:17;22.20;77.40
52765;DHT22;38650;44.536;18.664;2022-10-16T16:12:43;22.10;79.20
52765;DHT22;38650;44.536;18.664;2022-10-16T16:15:09;21.90;81.10
52765;DHT22;38650;44.536;18.664;2022-10-16T16:17:36;21.90;83.10
52765;DHT22;38650;44.536;18.664;2022-10-16T16:20:02;22.00;81.20
52765;DHT22;38650;44.536;18.664;2022-10-16T16:22:29;22.00;82.00
52765;DHT22;38650;44.536;18.664;2022-10-16T16:24:55;22.10;80.00
52765;DHT22;38650;44.536;18.664;2022-10-16T16:27:20;22.00;78.00
52765;DHT22;38650;44.536;18.664;2022-10-16T16:29:47;21.90;80.20
52765;DHT22;38650;44.536;18.664;2022-10-16T16:32:13;21.80;81.00
52765;DHT22;38650;44.536;18.664;2022-10-16T16:34:38;21.80;82.10
52765;DHT22;38650;44.536;18.664;2022-10-16T16:37:04;21.70;83.00
52765;DHT22;38650;44.536;18.664;2022-10-16T16:39:30;21.70;84.90
52765;DHT22;38650;44.536;18.664;2022-10-16T16:41:56;21.70;83.80
52765;DHT22;38650;44.536;18.664;2022-10-16T16:44:24;21.60;86.00
52765;DHT22;38650;44.536;18.664;2022-10-16T16:46:50;21.50;87.60
52765;DHT22;38650;44.536;18.664;2022-10-16T16:49:16;21.40;89.70
52765;DHT22;38650;44.536;18.664;2022-10-16T16:51:42;21.40;90.40
52765;DHT22;38650;44.536;18.664;2022-10-16T16:54:09;21.40;90.90
52765;DHT22;38650;44.536;18.664;2022-10-16T16:56:35;21.30;91.40
52765;DHT22;38650;44.536;18.664;2022-10-16T16:59:01;21.30;92.10
52765;DHT22;38650;44.536;18.664;2022-10-16T17:01:27;21.20;92.80
52765;DHT22;38650;44.536;18.664;2022-10-16T17:03:55;21.20;93.20
52765;DHT22;38650;44.536;18.664;2022-10-16T17:06:26;21.20;93.10
52765;DHT22;38650;44.536;18.664;2022-10-16T17:08:52;21.20;93.10
52765;DHT22;38650;44.536;18.664;2022-10-16T17:11:20;21.20;93.10
52765;DHT22;38650;44.536;18.664;2022-10-16T17:13:46;21.10;93.60
52765;DHT22;38650;44.536;18.664;2022-10-16T17:16:12;21.00;93.70
52765;DHT22;38650;44.536;18.664;2022-10-16T17:18:38;21.00;93.90
52765;DHT22;38650;44.536;18.664;2022-10-16T17:21:06;21.00;94.10
52765;DHT22;38650;44.536;18.664;2022-10-16T17:23:33;21.00;94.40
52765;DHT22;38650;44.536;18.664;2022-10-16T17:26:20;21.00;94.30
52765;DHT22;38650;44.536;18.664;2022-10-16T17:28:45;21.00;94.40
52765;DHT22;38650;44.536;18.664;2022-10-16T17:31:16;21.00;94.70
52765;DHT22;38650;44.536;18.664;2022-10-16T17:33:43;20.90;94.80
52765;DHT22;38650;44.536;18.664;2022-10-16T17:36:09;20.90;95.40
52765;DHT22;38650;44.536;18.664;2022-10-16T17:38:36;20.80;96.10
52765;DHT22;38650;44.536;18.664;2022-10-16T17:41:44;20.70;96.50
52765;DHT22;38650;44.536;18.664;2022-10-16T17:44:04;20.70;97.00
52765;DHT22;38650;44.536;18.664;2022-10-16T17:46:30;20.60;96.90
52765;DHT22;38650;44.536;18.664;2022-10-16T17:48:56;20.60;97.20
52765;DHT22;38650;44.536;18.664;2022-10-16T17:51:29;20.50;97.80
52765;DHT22;38650;44.536;18.664;2022-10-16T17:53:58;20.40;98.20